Time;durP1;ratioP1;P1;durP2;ratioP2;P2;SDS_P1;SDS_P2;PMS_P1;PMS_P2;Temp;Humidity;BMP_temperature;BMP_pressure;BME280_temperature;BME280_humidity;BME280_pressure;Samples;Min_cycle;Max_cycle;Signal;HPM_P1;HPM_P2
2022/06/21 00:01:13;;;;;;;19.90;7.25;;;;;;;;;;5087400;28;20044;-71
2022/06/21 00:03:45;;;;;;;10.60;5.95;;;;;;;;;;5085420;28;20055;-71
2022/06/21 00:06:22;;;;;;;9.88;6.43;;;;;;;;;;5087237;28;20048;-72
2022/06/21 00:08:53;;;;;;;13.20;7.05;;;;;;;;;;5087633;28;20040;-71
2022/06/21 00:11:27;;;;;;;18.33;6.65;;;;;;;;;;5087730;28;20048;-73
2022/06/21 00:13:58;;;;;;;7.43;5.28;;;;;;;;;;5087203;28;20047;-75
2022/06/21 00:16:30;;;;;;;10.95;5.47;;;;;;;;;;5087265;28;20048;-71
2022/06/21 00:19:02;;;;;;;13.55;5.88;;;;;;;;;;5087219;28;20419;-71
2022/06/21 00:21:37;;;;;;;11.35;6.05;;;;;;;;;;5086734;28;20048;-72
2022/06/21 00:24:08;;;;;;;8.73;5.63;;;;;;;;;;5088022;28;20048;-72
2022/06/21 00:26:38;;;;;;;10.70;5.97;;;;;;;;;;5087279;28;20048;-72
2022/06/21 00:29:07;;;;;;;8.60;5.75;;;;;;;;;;5086828;28;20044;-72
2022/06/21 00:31:40;;;;;;;12.57;6.22;;;;;;;;;;5087335;28;20047;-72
2022/06/21 00:34:18;;;;;;;10.38;5.93;;;;;;;;;;5087081;28;20032;-72
2022/06/21 00:36:50;;;;;;;9.60;5.90;;;;;;;;;;5087397;28;20052;-73
2022/06/21 00:39:20;;;;;;;8.18;5.00;;;;;;;;;;5087342;28;20040;-72
2022/06/21 00:42:00;;;;;;;6.90;5.32;;;;;;;;;;5086664;28;20075;-71
2022/06/21 00:44:57;;;;;;;11.02;5.78;;;;;;;;;;5087096;28;20040;-71
2022/06/21 00:47:54;;;;;;;13.82;5.85;;;;;;;;;;5086774;28;20378;-71
2022/06/21 00:50:37;;;;;;;12.77;5.18;;;;;;;;;;5052844;28;20411;-72
2022/06/21 00:53:29;;;;;;;11.82;6.10;;;;;;;;;;5087041;28;20040;-73
2022/06/21 00:56:14;;;;;;;12.45;5.45;;;;;;;;;;5086870;28;20067;-73
2022/06/21 00:58:44;;;;;;;11.82;6.75;;;;;;;;;;5086564;28;20063;-73
2022/06/21 01:01:27;;;;;;;9.57;7.20;;;;;;;;;;5085477;28;20060;-73
2022/06/21 01:04:02;;;;;;;12.48;6.78;;;;;;;;;;5087301;28;20463;-73
2022/06/21 01:06:38;;;;;;;14.02;7.22;;;;;;;;;;5086744;28;20044;-72
2022/06/21 01:09:41;;;;;;;11.20;6.80;;;;;;;;;;5068606;28;20052;-73
2022/06/21 01:12:19;;;;;;;12.52;7.57;;;;;;;;;;5047122;28;20063;-73
2022/06/21 01:14:58;;;;;;;10.93;7.32;;;;;;;;;;5087131;28;20044;-74
2022/06/21 01:17:30;;;;;;;15.02;9.90;;;;;;;;;;5087141;28;20601;-72
2022/06/21 01:20:09;;;;;;;15.93;10.43;;;;;;;;;;5067841;28;20056;-73
2022/06/21 01:23:05;;;;;;;9.73;7.35;;;;;;;;;;5086734;28;20526;-72
2022/06/21 01:25:59;;;;;;;13.57;7.55;;;;;;;;;;5086061;28;20056;-73
2022/06/21 01:28:32;;;;;;;14.43;8.30;;;;;;;;;;5086238;28;20048;-72
2022/06/21 01:31:02;;;;;;;11.20;8.20;;;;;;;;;;5086217;28;20330;-73
2022/06/21 01:33:40;;;;;;;14.63;8.27;;;;;;;;;;5085960;28;20044;-73
2022/06/21 01:36:18;;;;;;;18.17;9.20;;;;;;;;;;5086264;28;20044;-70
2022/06/21 01:39:20;;;;;;;20.83;10.02;;;;;;;;;;5086676;28;20067;-72
2022/06/21 01:42:02;;;;;;;11.07;7.40;;;;;;;;;;5074706;28;20507;-71
2022/06/21 01:44:39;;;;;;;10.85;7.65;;;;;;;;;;5051965;28;20055;-72
2022/06/21 01:47:14;;;;;;;12.63;8.00;;;;;;;;;;5086546;28;20052;-72
2022/06/21 01:49:53;;;;;;;13.50;7.88;;;;;;;;;;5086076;28;20062;-71
2022/06/21 01:52:28;;;;;;;14.75;8.27;;;;;;;;;;5085387;28;20052;-70
2022/06/21 01:55:06;;;;;;;19.58;9.27;;;;;;;;;;5085669;28;20051;-72
2022/06/21 01:57:37;;;;;;;9.90;7.22;;;;;;;;;;5086339;28;20163;-71
2022/06/21 02:00:07;;;;;;;;;;;;;;;;;;5086671;28;20130;-71
2022/06/21 02:02:48;;;;;;;16.70;7.85;;;;;;;;;;5090241;28;19924;-72
2022/06/21 02:05:22;;;;;;;9.60;7.78;;;;;;;;;;5071643;28;20407;-71
2022/06/21 02:07:56;;;;;;;16.65;10.52;;;;;;;;;;5090088;28;20499;-71
2022/06/21 02:10:32;;;;;;;18.55;9.57;;;;;;;;;;5072418;28;20048;-71
2022/06/21 02:13:21;;;;;;;12.30;9.05;;;;;;;;;;5089900;28;20054;-72
2022/06/21 02:16:18;;;;;;;12.88;8.57;;;;;;;;;;5071679;28;20048;-72
2022/06/21 02:18:55;;;;;;;13.38;9.00;;;;;;;;;;5082658;28;20056;-71
2022/06/21 02:21:43;;;;;;;15.13;9.18;;;;;;;;;;5090091;28;20055;-71
2022/06/21 02:24:15;;;;;;;20.52;8.20;;;;;;;;;;5087978;28;20060;-71
2022/06/21 02:26:46;;;;;;;12.65;7.22;;;;;;;;;;5089954;28;20048;-72
2022/06/21 02:29:16;;;;;;;10.38;6.72;;;;;;;;;;5071906;28;20047;-72
2022/06/21 02:31:46;;;;;;;10.32;7.07;;;;;;;;;;5090197;28;20060;-72
2022/06/21 02:34:30;;;;;;;14.30;7.15;;;;;;;;;;5089486;28;20055;-72
2022/06/21 02:37:02;;;;;;;10.25;6.75;;;;;;;;;;5089285;28;20043;-72
2022/06/21 02:39:36;;;;;;;12.13;7.55;;;;;;;;;;5089436;28;20052;-71
2022/06/21 02:42:22;;;;;;;9.88;7.30;;;;;;;;;;5089351;28;20044;-73
2022/06/21 02:45:01;;;;;;;11.27;7.22;;;;;;;;;;5089477;28;20044;-72
2022/06/21 02:47:41;;;;;;;9.52;7.45;;;;;;;;;;5089162;28;20060;-72
2022/06/21 02:50:26;;;;;;;10.63;7.47;;;;;;;;;;5088874;28;20779;-72
2022/06/21 02:52:57;;;;;;;15.52;7.80;;;;;;;;;;5089275;28;20052;-72
2022/06/21 02:55:39;;;;;;;11.20;7.90;;;;;;;;;;5071742;28;20062;-73
2022/06/21 02:58:38;;;;;;;9.52;7.68;;;;;;;;;;5089261;28;20278;-72
2022/06/21 03:01:21;;;;;;;10.00;7.55;;;;;;;;;;5088880;28;20048;-72
2022/06/21 03:03:52;;;;;;;12.18;7.35;;;;;;;;;;5089009;28;20040;-72
2022/06/21 03:06:23;;;;;;;11.55;8.50;;;;;;;;;;5088846;28;20044;-72
2022/06/21 03:09:06;;;;;;;9.95;7.20;;;;;;;;;;5088454;28;20040;-73
2022/06/21 03:11:40;;;;;;;10.55;7.82;;;;;;;;;;5088435;28;20055;-72
2022/06/21 03:14:17;;;;;;;12.55;7.55;;;;;;;;;;5088463;28;20048;-72
2022/06/21 03:16:48;;;;;;;14.10;7.97;;;;;;;;;;5088697;28;20046;-72
2022/06/21 03:19:27;;;;;;;9.88;7.63;;;;;;;;;;5088323;28;20055;-72
2022/06/21 03:21:58;;;;;;;12.63;7.82;;;;;;;;;;5088676;28;20063;-72
2022/06/21 03:24:31;;;;;;;10.57;7.72;;;;;;;;;;5070247;28;20048;-72
2022/06/21 03:27:37;;;;;;;12.45;7.55;;;;;;;;;;5088774;28;20044;-72
2022/06/21 03:30:08;;;;;;;22.60;7.72;;;;;;;;;;5065902;28;20064;-72
2022/06/21 03:32:38;;;;;;;11.38;8.15;;;;;;;;;;5069579;28;20059;-73
2022/06/21 03:35:08;;;;;;;16.15;8.23;;;;;;;;;;5088516;28;20384;-72
2022/06/21 03:37:40;;;;;;;12.13;8.05;;;;;;;;;;5088134;28;20411;-72
2022/06/21 03:43:14;;;;;;;11.82;7.15;;;;;;;;;;5038759;28;20068;-72
2022/06/21 03:45:46;;;;;;;10.15;7.20;;;;;;;;;;5088138;28;20040;-72
2022/06/21 03:48:43;;;;;;;11.07;7.70;;;;;;;;;;5088341;28;20040;-72
2022/06/21 03:51:17;;;;;;;9.77;7.05;;;;;;;;;;5087745;28;20398;-72
2022/06/21 03:53:56;;;;;;;9.98;7.40;;;;;;;;;;5088643;28;20396;-72
2022/06/21 03:56:31;;;;;;;13.10;7.43;;;;;;;;;;5087822;28;20079;-71
2022/06/21 03:59:10;;;;;;;11.73;7.57;;;;;;;;;;5087835;28;20036;-72
2022/06/21 04:02:09;;;;;;;14.23;7.45;;;;;;;;;;5088068;28;20055;-72
2022/06/21 04:04:51;;;;;;;10.35;6.75;;;;;;;;;;5069656;28;20047;-72
2022/06/21 04:07:41;;;;;;;10.82;7.47;;;;;;;;;;5087754;28;20036;-72
2022/06/21 04:10:22;;;;;;;11.50;7.72;;;;;;;;;;5069771;28;20604;-72
2022/06/21 04:12:55;;;;;;;11.32;7.57;;;;;;;;;;5088058;28;20376;-73
2022/06/21 04:15:35;;;;;;;16.30;8.50;;;;;;;;;;5088742;28;20052;-72
2022/06/21 04:18:17;;;;;;;12.18;8.40;;;;;;;;;;5087979;28;20051;-72
2022/06/21 04:21:27;;;;;;;18.80;8.63;;;;;;;;;;5087290;28;20411;-73
2022/06/21 04:24:12;;;;;;;11.93;7.35;;;;;;;;;;5086388;28;20051;-72
2022/06/21 04:26:45;;;;;;;12.32;7.78;;;;;;;;;;5087427;28;20047;-72
2022/06/21 04:29:20;;;;;;;11.90;8.45;;;;;;;;;;5068588;28;20078;-72
2022/06/21 04:32:14;;;;;;;15.07;9.40;;;;;;;;;;5087025;28;20513;-72
2022/06/21 04:35:02;;;;;;;14.23;9.13;;;;;;;;;;5077629;28;20161;-72
2022/06/21 04:37:57;;;;;;;14.48;9.23;;;;;;;;;;5087423;28;20398;-72
2022/06/21 04:40:52;;;;;;;15.48;8.45;;;;;;;;;;5088290;28;20379;-72
2022/06/21 04:43:36;;;;;;;15.10;9.70;;;;;;;;;;5086931;28;20047;-72
2022/06/21 04:46:24;;;;;;;11.02;9.15;;;;;;;;;;5086879;28;20044;-73
2022/06/21 04:49:11;;;;;;;17.20;9.82;;;;;;;;;;5087655;28;20040;-72
2022/06/21 04:51:48;;;;;;;12.73;9.55;;;;;;;;;;5086724;28;20044;-72
2022/06/21 04:54:25;;;;;;;16.45;9.23;;;;;;;;;;5086911;28;20063;-73
2022/06/21 04:57:13;;;;;;;20.17;8.43;;;;;;;;;;5086695;28;20051;-72
2022/06/21 04:59:46;;;;;;;13.95;7.85;;;;;;;;;;5087192;28;20044;-72
2022/06/21 05:02:28;;;;;;;10.50;7.68;;;;;;;;;;5086723;28;20418;-72
2022/06/21 05:05:15;;;;;;;15.30;8.48;;;;;;;;;;5086885;28;20059;-72
2022/06/21 05:07:54;;;;;;;14.40;8.60;;;;;;;;;;5086177;28;20048;-72
2022/06/21 05:10:34;;;;;;;14.10;8.40;;;;;;;;;;5086738;28;20530;-72
2022/06/21 05:13:17;;;;;;;11.75;7.90;;;;;;;;;;5086700;28;20051;-72
2022/06/21 05:15:48;;;;;;;9.35;7.22;;;;;;;;;;5086757;28;20044;-73
2022/06/21 05:18:31;;;;;;;10.07;7.68;;;;;;;;;;5068802;28;20521;-72
2022/06/21 05:21:09;;;;;;;11.98;7.78;;;;;;;;;;5086095;28;20582;-72
2022/06/21 05:23:40;;;;;;;14.57;8.10;;;;;;;;;;5086887;28;20538;-72
2022/06/21 05:26:30;;;;;;;13.27;8.23;;;;;;;;;;5085995;28;20051;-72
2022/06/21 05:29:13;;;;;;;11.43;7.67;;;;;;;;;;5086810;28;20051;-72
2022/06/21 05:31:47;;;;;;;13.38;8.00;;;;;;;;;;5087050;28;20062;-71
2022/06/21 05:34:26;;;;;;;13.52;7.63;;;;;;;;;;5087346;28;20036;-72
2022/06/21 05:37:19;;;;;;;16.17;8.60;;;;;;;;;;5089819;28;20044;-71
2022/06/21 05:39:52;;;;;;;11.60;7.18;;;;;;;;;;5089897;28;20050;-71
2022/06/21 05:42:27;;;;;;;9.30;7.35;;;;;;;;;;5090414;28;20515;-72
2022/06/21 05:45:12;;;;;;;14.63;8.90;;;;;;;;;;5090752;28;20039;-72
2022/06/21 05:47:55;;;;;;;8.55;7.07;;;;;;;;;;5090398;28;20424;-72
2022/06/21 05:50:29;;;;;;;14.70;8.75;;;;;;;;;;5090273;28;20043;-72
2022/06/21 05:53:09;;;;;;;12.10;7.22;;;;;;;;;;5090528;28;20410;-72
2022/06/21 05:55:44;;;;;;;13.35;7.50;;;;;;;;;;5090325;28;20858;-73
2022/06/21 05:58:46;;;;;;;16.48;7.28;;;;;;;;;;5090377;28;20036;-72
2022/06/21 06:01:33;;;;;;;12.18;7.80;;;;;;;;;;5076806;28;20056;-72
2022/06/21 06:04:38;;;;;;;11.15;7.43;;;;;;;;;;5090059;28;20055;-72
2022/06/21 06:07:15;;;;;;;17.08;7.50;;;;;;;;;;5090284;28;20047;-72
2022/06/21 06:09:49;;;;;;;9.35;6.93;;;;;;;;;;5089763;28;20044;-71
2022/06/21 06:12:43;;;;;;;12.27;7.63;;;;;;;;;;5090078;28;20399;-70
2022/06/21 06:15:33;;;;;;;13.98;7.85;;;;;;;;;;5090496;28;20044;-71
2022/06/21 06:18:13;;;;;;;8.85;6.75;;;;;;;;;;5090332;28;20047;-70
2022/06/21 06:21:15;;;;;;;8.45;6.90;;;;;;;;;;5089778;28;20574;-70
2022/06/21 06:23:53;;;;;;;9.88;6.85;;;;;;;;;;5056618;28;20056;-71
2022/06/21 06:26:30;;;;;;;9.57;7.85;;;;;;;;;;5089816;28;20071;-70
2022/06/21 06:29:15;;;;;;;17.08;7.22;;;;;;;;;;5088211;28;20063;-72
2022/06/21 06:32:10;;;;;;;9.52;7.30;;;;;;;;;;5089322;28;20063;-71
2022/06/21 06:34:49;;;;;;;8.25;7.13;;;;;;;;;;5071234;28;20055;-71
2022/06/21 06:37:30;;;;;;;12.35;7.38;;;;;;;;;;5089526;28;20075;-71
2022/06/21 06:40:05;;;;;;;10.60;6.63;;;;;;;;;;5089474;28;20051;-72
2022/06/21 06:42:39;;;;;;;12.98;7.65;;;;;;;;;;5089976;28;20040;-71
2022/06/21 06:45:19;;;;;;;13.45;6.88;;;;;;;;;;5089787;28;20048;-72
2022/06/21 06:47:56;;;;;;;9.82;7.10;;;;;;;;;;5088301;28;20056;-72
2022/06/21 06:50:36;;;;;;;10.57;7.03;;;;;;;;;;5089469;28;20048;-72
2022/06/21 06:53:45;;;;;;;7.57;6.47;;;;;;;;;;5089361;28;20715;-71
2022/06/21 06:56:21;;;;;;;11.15;6.68;;;;;;;;;;5088378;28;20052;-71
2022/06/21 06:59:12;;;;;;;10.93;6.55;;;;;;;;;;5089779;28;20044;-71
2022/06/21 07:01:57;;;;;;;13.25;6.28;;;;;;;;;;5089103;28;20059;-71
2022/06/21 07:04:34;;;;;;;9.95;6.35;;;;;;;;;;5088539;28;20044;-72
2022/06/21 07:07:14;;;;;;;11.43;7.35;;;;;;;;;;5088053;28;20506;-71
2022/06/21 07:09:51;;;;;;;12.45;9.13;;;;;;;;;;5070489;28;20082;-71
2022/06/21 07:12:27;;;;;;;10.30;7.05;;;;;;;;;;5088702;28;20051;-70
2022/06/21 07:15:00;;;;;;;18.77;7.80;;;;;;;;;;5088782;28;20495;-71
2022/06/21 07:17:36;;;;;;;16.45;7.05;;;;;;;;;;5088645;28;20051;-71
2022/06/21 07:20:26;;;;;;;12.75;7.22;;;;;;;;;;5088936;28;20055;-71
2022/06/21 07:22:57;;;;;;;9.07;6.90;;;;;;;;;;5088499;28;20052;-71
2022/06/21 07:25:45;;;;;;;10.00;7.53;;;;;;;;;;5089119;28;20059;-71
2022/06/21 07:28:26;;;;;;;9.55;7.55;;;;;;;;;;5088760;28;20055;-71
2022/06/21 07:31:00;;;;;;;9.73;7.83;;;;;;;;;;5088675;28;20051;-71
2022/06/21 07:33:39;;;;;;;9.63;6.35;;;;;;;;;;5088469;28;20293;-70
2022/06/21 07:36:20;;;;;;;12.38;7.45;;;;;;;;;;5088316;28;20638;-71
2022/06/21 07:39:15;;;;;;;14.18;7.13;;;;;;;;;;5088478;28;20047;-71
2022/06/21 07:41:56;;;;;;;9.38;7.28;;;;;;;;;;5088192;28;20051;-72
2022/06/21 07:45:06;;;;;;;10.05;7.05;;;;;;;;;;5088357;28;20523;-71
2022/06/21 07:47:47;;;;;;;10.93;7.28;;;;;;;;;;5088215;28;20066;-70
2022/06/21 07:50:31;;;;;;;9.73;6.32;;;;;;;;;;5087844;28;20043;-71
2022/06/21 07:53:39;;;;;;;9.60;7.00;;;;;;;;;;5088088;28;20058;-71
2022/06/21 07:56:18;;;;;;;9.48;7.35;;;;;;;;;;5062145;28;20507;-71
2022/06/21 07:58:56;;;;;;;9.88;7.20;;;;;;;;;;5088141;28;20066;-71
2022/06/21 08:07:31;;;;;;;17.15;7.78;;;;;;;;;;5087344;28;20044;-71
2022/06/21 08:10:22;;;;;;;15.95;8.30;;;;;;;;;;5087982;28;20414;-72
2022/06/21 08:12:55;;;;;;;10.50;7.23;;;;;;;;;;5087833;28;20040;-71
2022/06/21 08:15:30;;;;;;;11.02;7.63;;;;;;;;;;5087743;28;20048;-71
2022/06/21 08:18:02;;;;;;;15.55;7.35;;;;;;;;;;5087763;28;20491;-71
2022/06/21 08:20:44;;;;;;;11.80;6.78;;;;;;;;;;5087813;28;20593;-72
2022/06/21 08:23:20;;;;;;;8.93;6.55;;;;;;;;;;5088188;28;20040;-72
2022/06/21 08:26:02;;;;;;;13.77;7.18;;;;;;;;;;5087530;28;20036;-70
2022/06/21 08:28:38;;;;;;;9.18;6.32;;;;;;;;;;5087686;28;20552;-71
2022/06/21 08:31:14;;;;;;;10.68;6.63;;;;;;;;;;5087201;28;20055;-71
2022/06/21 08:33:56;;;;;;;9.00;5.75;;;;;;;;;;5086887;28;20042;-71
2022/06/21 08:36:37;;;;;;;8.02;6.30;;;;;;;;;;5069571;28;20051;-72
2022/06/21 08:39:17;;;;;;;8.77;6.43;;;;;;;;;;5087188;28;20058;-71
2022/06/21 08:41:57;;;;;;;10.75;6.55;;;;;;;;;;5068775;28;20052;-72
2022/06/21 08:44:40;;;;;;;10.43;6.32;;;;;;;;;;5069216;28;20063;-71
2022/06/21 08:47:30;;;;;;;10.77;6.68;;;;;;;;;;5087384;28;20059;-71
2022/06/21 08:50:36;;;;;;;10.20;6.32;;;;;;;;;;5068592;28;20533;-71
2022/06/21 08:53:35;;;;;;;15.27;6.75;;;;;;;;;;5087028;28;20059;-71
2022/06/21 08:56:14;;;;;;;10.90;6.50;;;;;;;;;;5079975;28;20070;-70
2022/06/21 08:59:11;;;;;;;11.80;6.90;;;;;;;;;;5087318;28;20051;-72
2022/06/21 09:01:51;;;;;;;8.43;6.50;;;;;;;;;;5086671;28;20055;-71
2022/06/21 09:05:03;;;;;;;11.93;6.55;;;;;;;;;;5086652;28;20047;-71
2022/06/21 09:07:56;;;;;;;28.50;7.45;;;;;;;;;;5003587;28;20046;-71
2022/06/21 09:11:02;;;;;;;18.67;7.00;;;;;;;;;;5004001;28;20045;-72
2022/06/21 09:13:58;;;;;;;10.60;7.03;;;;;;;;;;5083891;28;20060;-71
2022/06/21 09:16:53;;;;;;;15.93;6.22;;;;;;;;;;5086849;28;20036;-72
2022/06/21 09:19:36;;;;;;;7.88;5.88;;;;;;;;;;5086613;28;20048;-71
2022/06/21 09:22:14;;;;;;;20.23;6.97;;;;;;;;;;5086694;28;20529;-71
2022/06/21 09:25:07;;;;;;;15.32;7.47;;;;;;;;;;5068035;28;20372;-71
2022/06/21 09:27:54;;;;;;;11.75;7.55;;;;;;;;;;5086370;28;20051;-71
2022/06/21 09:30:41;;;;;;;12.20;6.63;;;;;;;;;;5086678;28;20110;-72
2022/06/21 09:33:16;;;;;;;12.45;7.45;;;;;;;;;;5086510;28;20047;-71
2022/06/21 09:36:14;;;;;;;11.95;6.40;;;;;;;;;;5086239;28;20415;-71
2022/06/21 09:39:13;;;;;;;14.63;7.35;;;;;;;;;;5086504;28;20040;-73
2022/06/21 09:42:17;;;;;;;8.65;6.53;;;;;;;;;;5086346;28;20052;-71
2022/06/21 09:45:13;;;;;;;9.82;7.28;;;;;;;;;;5086584;28;20403;-72
2022/06/21 09:47:55;;;;;;;14.77;6.70;;;;;;;;;;5048911;28;20044;-72
2022/06/21 09:50:50;;;;;;;10.32;6.60;;;;;;;;;;5086874;28;20044;-72
2022/06/21 09:53:35;;;;;;;12.27;6.63;;;;;;;;;;5086449;28;20059;-73
2022/06/21 09:56:16;;;;;;;12.55;6.60;;;;;;;;;;5086387;28;20115;-72
2022/06/21 09:59:01;;;;;;;9.52;6.15;;;;;;;;;;5086415;28;20047;-72
2022/06/21 10:01:44;;;;;;;12.70;6.10;;;;;;;;;;5086349;28;20508;-72
2022/06/21 10:04:20;;;;;;;8.25;5.80;;;;;;;;;;5085995;28;20044;-74
2022/06/21 10:07:14;;;;;;;8.68;6.20;;;;;;;;;;5086724;28;20044;-73
2022/06/21 10:10:15;;;;;;;13.60;6.25;;;;;;;;;;5077154;28;20063;-73
2022/06/21 10:13:19;;;;;;;6.72;5.53;;;;;;;;;;5086647;28;20044;-72
2022/06/21 10:16:26;;;;;;;9.98;6.55;;;;;;;;;;5086308;28;20047;-72
2022/06/21 10:19:08;;;;;;;9.60;5.45;;;;;;;;;;5085900;28;20036;-72
2022/06/21 10:21:56;;;;;;;7.63;6.18;;;;;;;;;;5086121;28;20040;-72
2022/06/21 10:24:40;;;;;;;11.55;7.30;;;;;;;;;;5089239;28;20047;-72
2022/06/21 10:27:38;;;;;;;11.82;6.22;;;;;;;;;;5089694;28;20060;-72
2022/06/21 10:30:26;;;;;;;10.82;7.25;;;;;;;;;;5089384;28;20039;-73
2022/06/21 10:33:05;;;;;;;9.02;7.07;;;;;;;;;;5088958;28;20059;-72
2022/06/21 10:35:59;;;;;;;21.00;9.98;;;;;;;;;;5087590;28;20059;-71
2022/06/21 10:38:47;;;;;;;14.43;7.00;;;;;;;;;;5087995;28;21031;-71
2022/06/21 10:41:25;;;;;;;13.77;7.57;;;;;;;;;;5089539;28;20043;-71
2022/06/21 10:44:50;;;;;;;16.20;9.02;;;;;;;;;;5089159;28;20056;-71
2022/06/21 10:47:52;;;;;;;9.30;6.60;;;;;;;;;;5018374;28;20056;-71
2022/06/21 10:50:31;;;;;;;;;;;;;;;;;;5089949;28;20515;-72
2022/06/21 10:53:39;;;;;;;13.25;6.57;;;;;;;;;;5089316;28;19924;-71
2022/06/21 10:59:15;;;;;;;19.90;10.70;;;;;;;;;;5088298;28;20060;-71
2022/06/21 11:02:05;;;;;;;16.27;9.00;;;;;;;;;;5089158;28;20048;-72
2022/06/21 11:04:46;;;;;;;13.20;9.30;;;;;;;;;;5088724;28;20668;-72
2022/06/21 11:07:16;;;;;;;18.93;9.83;;;;;;;;;;5089036;28;20052;-72
2022/06/21 11:09:51;;;;;;;20.83;11.55;;;;;;;;;;5088616;28;20044;-72
2022/06/21 11:15:43;;;;;;;25.67;16.15;;;;;;;;;;5088298;28;20036;-75
2022/06/21 11:18:45;;;;;;;23.73;15.90;;;;;;;;;;5088856;28;20052;-70
2022/06/21 11:21:27;;;;;;;30.23;18.13;;;;;;;;;;5088239;28;20040;-70
2022/06/21 11:24:28;;;;;;;28.80;18.95;;;;;;;;;;5088850;28;20044;-72
2022/06/21 11:27:21;;;;;;;29.70;19.27;;;;;;;;;;5088739;28;20040;-71
2022/06/21 11:30:03;;;;;;;37.25;19.58;;;;;;;;;;5087174;28;20110;-72
2022/06/21 11:32:47;;;;;;;27.17;17.33;;;;;;;;;;5088073;28;20541;-73
2022/06/21 11:35:20;;;;;;;26.85;17.33;;;;;;;;;;5088167;28;20039;-72
2022/06/21 11:38:11;;;;;;;26.77;17.17;;;;;;;;;;5087908;28;20040;-72
2022/06/21 11:40:41;;;;;;;26.35;17.17;;;;;;;;;;5088371;28;20051;-72
2022/06/21 11:43:44;;;;;;;22.33;15.40;;;;;;;;;;5088342;28;20075;-72
2022/06/21 11:46:20;;;;;;;7.32;5.22;;;;;;;;;;5087726;28;20052;-72
2022/06/21 11:49:11;;;;;;;19.85;14.98;;;;;;;;;;5088159;28;20044;-72
2022/06/21 11:52:03;;;;;;;26.67;16.63;;;;;;;;;;5088798;28;20047;-72
2022/06/21 11:54:49;;;;;;;26.90;17.40;;;;;;;;;;5088041;28;20040;-72
2022/06/21 11:57:45;;;;;;;27.20;17.63;;;;;;;;;;5087763;28;20044;-72
2022/06/21 12:00:39;;;;;;;30.33;17.40;;;;;;;;;;5086825;28;20051;-72
2022/06/21 12:03:26;;;;;;;18.48;15.27;;;;;;;;;;5077925;28;20064;-71
2022/06/21 12:06:08;;;;;;;23.17;16.30;;;;;;;;;;5087669;28;20055;-72
2022/06/21 12:09:16;;;;;;;;;;;;;;;;;;5088028;28;20509;-72
2022/06/21 12:11:51;;;;;;;22.40;13.10;;;;;;;;;;5087512;28;19935;-71
2022/06/21 12:14:39;;;;;;;21.00;14.30;;;;;;;;;;5087525;28;20052;-71
2022/06/21 12:17:20;;;;;;;18.00;13.27;;;;;;;;;;5087781;28;20395;-72
2022/06/21 12:19:59;;;;;;;22.52;13.65;;;;;;;;;;5087449;28;20048;-71
2022/06/21 12:22:38;;;;;;;21.77;14.98;;;;;;;;;;5087131;28;20052;-71
2022/06/21 12:25:13;;;;;;;15.60;11.13;;;;;;;;;;5087799;28;20044;-72
2022/06/21 12:27:44;;;;;;;11.45;9.13;;;;;;;;;;5087375;28;20047;-72
2022/06/21 12:30:23;;;;;;;14.93;8.77;;;;;;;;;;5086112;28;20052;-72
2022/06/21 12:33:15;;;;;;;13.60;8.07;;;;;;;;;;5087292;28;20055;-72
2022/06/21 12:35:46;;;;;;;9.18;6.72;;;;;;;;;;5087009;28;20063;-76
2022/06/21 12:38:22;;;;;;;9.05;6.25;;;;;;;;;;5087406;28;20062;-71
2022/06/21 12:41:26;;;;;;;9.77;5.63;;;;;;;;;;5087277;28;20075;-71
2022/06/21 12:44:21;;;;;;;7.28;6.47;;;;;;;;;;5086965;28;20051;-72
2022/06/21 12:47:19;;;;;;;11.65;8.07;;;;;;;;;;5086646;28;20047;-72
2022/06/21 12:50:26;;;;;;;11.10;9.80;;;;;;;;;;5087355;28;20408;-72
2022/06/21 12:53:08;;;;;;;8.68;7.18;;;;;;;;;;5087234;28;20044;-72
2022/06/21 12:55:53;;;;;;;13.13;7.15;;;;;;;;;;5087077;28;20388;-72
2022/06/21 12:58:45;;;;;;;9.30;6.40;;;;;;;;;;5086883;28;20055;-74
2022/06/21 13:01:54;;;;;;;14.63;9.93;;;;;;;;;;5086861;28;20498;-72
2022/06/21 13:04:57;;;;;;;14.80;8.82;;;;;;;;;;5064650;28;20078;-72
2022/06/21 13:08:11;;;;;;;10.85;7.75;;;;;;;;;;5086951;28;20040;-72
2022/06/21 13:10:55;;;;;;;17.90;8.20;;;;;;;;;;5087229;28;20055;-72
2022/06/21 13:13:40;;;;;;;10.68;8.48;;;;;;;;;;5087137;28;20044;-72
2022/06/21 13:16:47;;;;;;;14.23;9.75;;;;;;;;;;5087086;28;20357;-72
2022/06/21 13:19:35;;;;;;;20.83;10.57;;;;;;;;;;5069384;28;20071;-72
2022/06/21 13:22:20;;;;;;;11.57;7.95;;;;;;;;;;5067665;28;20067;-72
2022/06/21 13:24:59;;;;;;;11.27;8.77;;;;;;;;;;5086660;28;20054;-71
2022/06/21 13:27:37;;;;;;;15.68;8.70;;;;;;;;;;5086683;28;20052;-72
2022/06/21 13:30:36;;;;;;;14.65;9.20;;;;;;;;;;5086819;28;20051;-71
2022/06/21 13:33:19;;;;;;;15.98;7.50;;;;;;;;;;5068903;28;20036;-71
2022/06/21 13:36:06;;;;;;;7.80;6.93;;;;;;;;;;5086938;28;20411;-74
2022/06/21 13:38:54;;;;;;;11.15;7.75;;;;;;;;;;5086808;28;20456;-72
2022/06/21 13:44:45;;;;;;;10.10;8.18;;;;;;;;;;5067934;28;21094;-72
2022/06/21 13:47:26;;;;;;;14.60;8.52;;;;;;;;;;5086082;28;20055;-72
2022/06/21 13:50:14;;;;;;;12.73;8.90;;;;;;;;;;5086648;28;20502;-72
2022/06/21 13:53:37;;;;;;;11.77;8.70;;;;;;;;;;5086604;28;20051;-75
2022/06/21 13:56:17;;;;;;;13.57;9.10;;;;;;;;;;4987629;28;20050;-73
2022/06/21 13:58:54;;;;;;;12.23;8.48;;;;;;;;;;5082197;28;20048;-72
2022/06/21 14:01:50;;;;;;;14.40;9.25;;;;;;;;;;5089846;28;20048;-72
2022/06/21 14:04:41;;;;;;;10.95;8.25;;;;;;;;;;5090855;28;20048;-73
2022/06/21 14:07:18;;;;;;;12.60;8.98;;;;;;;;;;5090383;28;20483;-73
2022/06/21 14:10:00;;;;;;;12.88;7.53;;;;;;;;;;5089657;28;20043;-72
2022/06/21 14:12:40;;;;;;;10.95;7.88;;;;;;;;;;5090021;28;20044;-73
2022/06/21 14:15:30;;;;;;;12.20;8.20;;;;;;;;;;5090120;28;20040;-72
2022/06/21 14:18:30;;;;;;;19.30;11.73;;;;;;;;;;5090175;28;20056;-74
2022/06/21 14:21:06;;;;;;;13.27;8.18;;;;;;;;;;5089762;28;20032;-72
2022/06/21 14:24:02;;;;;;;7.90;6.10;;;;;;;;;;5089720;28;20569;-73
2022/06/21 14:26:38;;;;;;;9.27;5.65;;;;;;;;;;5071626;28;20054;-72
2022/06/21 14:29:37;;;;;;;6.15;4.88;;;;;;;;;;5090377;28;20051;-72
2022/06/21 14:32:31;;;;;;;9.35;5.78;;;;;;;;;;5080416;28;20056;-72
2022/06/21 14:35:39;;;;;;;5.82;4.47;;;;;;;;;;5089433;28;20070;-72
2022/06/21 14:38:37;;;;;;;8.23;5.90;;;;;;;;;;5068872;28;20063;-72
2022/06/21 14:41:14;;;;;;;10.27;6.18;;;;;;;;;;5089528;28;20051;-72
2022/06/21 14:44:03;;;;;;;8.30;7.43;;;;;;;;;;5089128;28;20048;-72
2022/06/21 14:47:11;;;;;;;11.75;7.70;;;;;;;;;;5089591;28;20048;-72
2022/06/21 14:50:22;;;;;;;12.77;7.63;;;;;;;;;;5078567;28;20055;-72
2022/06/21 14:53:19;;;;;;;11.43;8.20;;;;;;;;;;5011397;28;20049;-73
2022/06/21 14:56:12;;;;;;;12.00;7.50;;;;;;;;;;5026640;28;20540;-72
2022/06/21 14:59:00;;;;;;;6.95;5.43;;;;;;;;;;5085285;28;20056;-74
2022/06/21 15:02:02;;;;;;;6.88;5.25;;;;;;;;;;5089020;28;20040;-72
2022/06/21 15:04:41;;;;;;;7.10;4.82;;;;;;;;;;5089165;28;20051;-72
2022/06/21 15:07:32;;;;;;;5.65;4.10;;;;;;;;;;5089387;28;20063;-72
2022/06/21 15:10:08;;;;;;;7.32;3.72;;;;;;;;;;5088169;28;20411;-73
2022/06/21 15:13:19;;;;;;;6.10;3.60;;;;;;;;;;5088968;28;20051;-72
2022/06/21 15:15:50;;;;;;;6.85;3.90;;;;;;;;;;5079421;28;20064;-72
2022/06/21 15:18:25;;;;;;;;;;;;;;;;;;5089035;28;20043;-72
2022/06/21 15:21:07;;;;;;;8.73;4.55;;;;;;;;;;5088552;28;19998;-73
2022/06/21 15:23:43;;;;;;;6.15;5.03;;;;;;;;;;5089137;28;20067;-72
2022/06/21 15:26:17;;;;;;;5.38;3.72;;;;;;;;;;5088583;28;20048;-72
2022/06/21 15:28:51;;;;;;;3.47;3.17;;;;;;;;;;5070949;28;20109;-72
2022/06/21 15:31:24;;;;;;;4.55;3.38;;;;;;;;;;5088212;28;20047;-72
2022/06/21 15:34:19;;;;;;;5.07;3.95;;;;;;;;;;5088384;28;20051;-72
2022/06/21 15:37:17;;;;;;;8.70;3.92;;;;;;;;;;5079695;28;20060;-72
2022/06/21 15:39:51;;;;;;;7.45;4.35;;;;;;;;;;5088660;28;20055;-72
2022/06/21 15:42:28;;;;;;;6.75;5.10;;;;;;;;;;5088046;28;20055;-73
2022/06/21 15:45:16;;;;;;;9.85;6.32;;;;;;;;;;5088037;28;20935;-73
2022/06/21 15:51:21;;;;;;;11.23;4.85;;;;;;;;;;5087966;28;20052;-72
2022/06/21 15:53:58;;;;;;;6.40;4.88;;;;;;;;;;5088154;28;20040;-73
2022/06/21 15:56:42;;;;;;;5.82;4.72;;;;;;;;;;5087809;28;20040;-73
2022/06/21 15:59:50;;;;;;;7.07;4.80;;;;;;;;;;5088174;28;20044;-72
2022/06/21 16:02:41;;;;;;;5.97;4.38;;;;;;;;;;5087424;28;20055;-73
2022/06/21 16:05:52;;;;;;;7.50;4.40;;;;;;;;;;5069327;28;20048;-73
2022/06/21 16:08:44;;;;;;;9.77;6.55;;;;;;;;;;5087702;28;20055;-73
2022/06/21 16:11:23;;;;;;;14.00;8.25;;;;;;;;;;5088553;28;20040;-73
2022/06/21 16:13:57;;;;;;;11.30;6.80;;;;;;;;;;5088020;28;20052;-73
2022/06/21 16:16:48;;;;;;;9.70;5.00;;;;;;;;;;5087864;28;20051;-76
2022/06/21 16:19:21;;;;;;;4.28;3.13;;;;;;;;;;5087291;28;20048;-74
2022/06/21 16:21:56;;;;;;;7.35;2.78;;;;;;;;;;5087726;28;20056;-73
2022/06/21 16:24:55;;;;;;;6.32;3.80;;;;;;;;;;5087725;28;20047;-79
2022/06/21 16:27:37;;;;;;;8.13;3.13;;;;;;;;;;5087711;28;20054;-72
2022/06/21 16:30:20;;;;;;;4.68;2.85;;;;;;;;;;5087533;28;20046;-73
2022/06/21 16:35:52;;;;;;;3.78;2.35;;;;;;;;;;5087457;28;20067;-74
2022/06/21 16:38:41;;;;;;;2.15;1.95;;;;;;;;;;5087843;28;20048;-75